Ledyard, New York
Current Conditions -  °F | °C
As of 12:56 PM on Monday 24 Nov 2014 (Local Time) from KITH Reporting Station
Scattered Clouds Scattered Clouds  
Wind Chill: 68°   Ceiling: Unl
Heat Index: 68°   Visibility: 10mi
Dew Point: 52°   Wind: 17mph
Humidity: 56%   Direction: 200°SSW
Pressure: 29.39"   Gusts: 31mph
Location:  42.7483°N, 76.6573°W
Report Text: KITH 241756Z 20015G27KT 10SM SCT044 20/11 A2939 RMK AO2 58033 T02000111 10200 20144 PK WND 21027/1754 SLP950
Loading
Personal Weather Stations






























Interactive Weather Map New forecast layout! Learn more

10-Day Weather Forecast

Advertisements
Track Severe Weather on mobile